Guernsey, IA

8:46 AM CST on December 18, 2014 (GMT -0600)
TCA Brooklyn | Change Station
CLOSE
Current Station
Personal Weather Station
Location: Brooklyn, IA
Elevation: 951 ft
Nearby Weather Stations

Elev 951 ft 41.70 °N, 92.45 °W | Updated 55 seconds ago

Snow
Snow
19.6 °F
Feels Like 20 °F
N
0.0
Wind Variable Wind from SE
Gusts 1.0 mph

Today
High -- | Low -- °F
--% Chance of Precip.
Yesterday
High -- | Low -- °F
Precip. -- in
7:31 AM 4:40 PM
Waning Crescent, 14% visible
Pressure 30.28 in
Visibility 10.0 miles
Clouds Overcast 4800 ft
Windchill 20 °F
Dew Point 17 °F
Humidity 89%
Rainfall 0.00 in
Snow Depth Not available.
UV 0 out of 12
Pollen .10 out of 12
Air Quality Not available.
Flu Activity Not available.
METAR KGGI 181435Z AUTO 00000KT 10SM OVC048 M07/M08 A3028 RMK AO2 T10681082

More Conditions Fewer Conditions

Pressure 30.28 in
Visibility 10.0 miles
Clouds Overcast 4800 ft
Windchill 20 °F
Dew Point 17 °F
Humidity 89%
Rainfall 0.00 in
Snow Depth Not available.
UV 0 out of 12
Pollen .10 out of 12
Air Quality Not available.
Flu Activity Not available.
METAR KGGI 181435Z AUTO 00000KT 10SM OVC048 M07/M08 A3028 RMK AO2 T10681082

More Conditions Fewer Conditions

10-Day Weather Forecast

Almanac

Astronomy

Dec. 18, 2014 Rise Set
Actual Time
Civil Twilight
Nautical Twilight
Astronomical Twilight
Moon
Length of Visible Light
Length of Day
Tomorrow will be .
, % of the Moon is Illuminated

Today's Extremes

State Highs State Lows

Community

WunderPhotos

Upload Photos

1,778,929 photos uploaded!

WunderBlogs® & News

Nearby

Air Quality

  Air Quality AQ Index Pollutant
Not available.

Snow Depth

Station Depth Elevation

Earthquake Activity

City Distance Mag. Time & Date
Minimum magnitude displayed is 2.5.

Coastal Water Temperatures

Place Temperature

Nearby Weather Stations